sensor_id;sensor_type;location;lat;lon;timestamp;P1;durP1;ratioP1;P2;durP2;ratioP2
6725;SDS011;3400;48.506;11.692;2023-08-06T00:00:41;7.93;;;5.97;;
6725;SDS011;3400;48.506;11.692;2023-08-06T00:03:09;6.33;;;5.67;;
6725;SDS011;3400;48.506;11.692;2023-08-06T00:05:37;5.27;;;4.77;;
6725;SDS011;3400;48.506;11.692;2023-08-06T00:08:04;4.57;;;3.80;;
6725;SDS011;3400;48.506;11.692;2023-08-06T00:10:34;5.37;;;3.10;;
6725;SDS011;3400;48.506;11.692;2023-08-06T00:13:01;3.77;;;3.17;;
6725;SDS011;3400;48.506;11.692;2023-08-06T00:15:29;3.33;;;3.10;;
6725;SDS011;3400;48.506;11.692;2023-08-06T00:17:56;3.23;;;3.03;;
6725;SDS011;3400;48.506;11.692;2023-08-06T00:20:24;5.60;;;2.63;;
6725;SDS011;3400;48.506;11.692;2023-08-06T00:22:52;3.23;;;2.57;;
6725;SDS011;3400;48.506;11.692;2023-08-06T00:25:19;4.83;;;2.80;;
6725;SDS011;3400;48.506;11.692;2023-08-06T00:27:48;3.83;;;2.70;;
6725;SDS011;3400;48.506;11.692;2023-08-06T00:30:16;2.47;;;2.33;;
6725;SDS011;3400;48.506;11.692;2023-08-06T00:32:44;4.37;;;2.70;;
6725;SDS011;3400;48.506;11.692;2023-08-06T00:35:12;2.60;;;2.40;;
6725;SDS011;3400;48.506;11.692;2023-08-06T00:37:39;3.00;;;2.80;;
6725;SDS011;3400;48.506;11.692;2023-08-06T00:40:26;3.07;;;2.77;;
6725;SDS011;3400;48.506;11.692;2023-08-06T00:42:58;4.23;;;2.60;;
6725;SDS011;3400;48.506;11.692;2023-08-06T00:45:26;2.87;;;2.50;;
6725;SDS011;3400;48.506;11.692;2023-08-06T00:47:57;3.73;;;2.50;;
6725;SDS011;3400;48.506;11.692;2023-08-06T00:50:25;3.07;;;2.77;;
6725;SDS011;3400;48.506;11.692;2023-08-06T00:52:53;2.90;;;2.70;;
6725;SDS011;3400;48.506;11.692;2023-08-06T00:55:21;4.43;;;3.27;;
6725;SDS011;3400;48.506;11.692;2023-08-06T00:57:48;3.10;;;2.90;;
6725;SDS011;3400;48.506;11.692;2023-08-06T01:00:18;3.30;;;3.03;;
6725;SDS011;3400;48.506;11.692;2023-08-06T01:02:47;3.17;;;2.80;;
6725;SDS011;3400;48.506;11.692;2023-08-06T01:05:15;3.13;;;2.83;;
6725;SDS011;3400;48.506;11.692;2023-08-06T01:07:45;3.43;;;3.13;;
6725;SDS011;3400;48.506;11.692;2023-08-06T01:10:17;4.33;;;3.03;;
6725;SDS011;3400;48.506;11.692;2023-08-06T01:12:48;3.90;;;2.80;;
6725;SDS011;3400;48.506;11.692;2023-08-06T01:15:22;2.83;;;2.63;;
6725;SDS011;3400;48.506;11.692;2023-08-06T01:17:51;3.40;;;3.10;;
6725;SDS011;3400;48.506;11.692;2023-08-06T01:20:19;3.93;;;2.63;;
6725;SDS011;3400;48.506;11.692;2023-08-06T01:22:48;3.47;;;3.10;;
6725;SDS011;3400;48.506;11.692;2023-08-06T01:25:16;3.70;;;3.40;;
6725;SDS011;3400;48.506;11.692;2023-08-06T01:27:44;4.30;;;3.30;;
6725;SDS011;3400;48.506;11.692;2023-08-06T01:30:15;3.67;;;3.17;;
6725;SDS011;3400;48.506;11.692;2023-08-06T01:32:44;3.77;;;3.47;;
6725;SDS011;3400;48.506;11.692;2023-08-06T01:35:13;3.87;;;3.57;;
6725;SDS011;3400;48.506;11.692;2023-08-06T01:37:43;3.60;;;3.40;;
6725;SDS011;3400;48.506;11.692;2023-08-06T01:40:13;6.00;;;3.33;;
6725;SDS011;3400;48.506;11.692;2023-08-06T01:42:40;3.50;;;3.20;;
6725;SDS011;3400;48.506;11.692;2023-08-06T01:45:08;4.70;;;3.47;;
6725;SDS011;3400;48.506;11.692;2023-08-06T01:47:36;5.30;;;3.57;;
6725;SDS011;3400;48.506;11.692;2023-08-06T01:50:04;4.60;;;4.20;;
6725;SDS011;3400;48.506;11.692;2023-08-06T01:52:32;4.37;;;3.97;;
6725;SDS011;3400;48.506;11.692;2023-08-06T01:55:00;4.40;;;4.00;;
6725;SDS011;3400;48.506;11.692;2023-08-06T01:57:29;4.67;;;4.33;;
6725;SDS011;3400;48.506;11.692;2023-08-06T01:59:57;5.40;;;4.10;;
6725;SDS011;3400;48.506;11.692;2023-08-06T02:02:25;4.43;;;3.73;;
6725;SDS011;3400;48.506;11.692;2023-08-06T02:04:53;4.07;;;3.67;;
6725;SDS011;3400;48.506;11.692;2023-08-06T02:07:21;4.90;;;4.40;;
6725;SDS011;3400;48.506;11.692;2023-08-06T02:09:48;4.27;;;3.97;;
6725;SDS011;3400;48.506;11.692;2023-08-06T02:12:16;4.37;;;3.70;;
6725;SDS011;3400;48.506;11.692;2023-08-06T02:14:45;5.03;;;4.30;;
6725;SDS011;3400;48.506;11.692;2023-08-06T02:17:13;6.57;;;3.57;;
6725;SDS011;3400;48.506;11.692;2023-08-06T02:19:40;4.33;;;3.93;;
6725;SDS011;3400;48.506;11.692;2023-08-06T02:22:08;4.33;;;4.00;;
6725;SDS011;3400;48.506;11.692;2023-08-06T02:24:36;4.87;;;4.47;;
6725;SDS011;3400;48.506;11.692;2023-08-06T02:27:04;4.60;;;4.20;;
6725;SDS011;3400;48.506;11.692;2023-08-06T02:29:32;5.90;;;3.93;;
6725;SDS011;3400;48.506;11.692;2023-08-06T02:32:01;5.10;;;4.60;;
6725;SDS011;3400;48.506;11.692;2023-08-06T02:34:29;6.47;;;5.27;;
6725;SDS011;3400;48.506;11.692;2023-08-06T02:36:57;6.07;;;4.77;;
6725;SDS011;3400;48.506;11.692;2023-08-06T02:39:24;6.60;;;4.57;;
6725;SDS011;3400;48.506;11.692;2023-08-06T02:41:52;6.07;;;5.47;;
6725;SDS011;3400;48.506;11.692;2023-08-06T02:44:20;6.17;;;5.57;;
6725;SDS011;3400;48.506;11.692;2023-08-06T02:46:48;7.37;;;5.83;;
6725;SDS011;3400;48.506;11.692;2023-08-06T02:49:17;6.73;;;6.03;;
6725;SDS011;3400;48.506;11.692;2023-08-06T02:51:45;7.33;;;6.07;;
6725;SDS011;3400;48.506;11.692;2023-08-06T02:54:13;7.37;;;6.63;;
6725;SDS011;3400;48.506;11.692;2023-08-06T02:56:42;8.17;;;6.67;;
6725;SDS011;3400;48.506;11.692;2023-08-06T02:59:21;7.97;;;7.00;;
6725;SDS011;3400;48.506;11.692;2023-08-06T03:02:15;7.63;;;6.93;;
6725;SDS011;3400;48.506;11.692;2023-08-06T03:04:56;7.87;;;6.53;;
6725;SDS011;3400;48.506;11.692;2023-08-06T03:07:28;7.93;;;6.77;;
6725;SDS011;3400;48.506;11.692;2023-08-06T03:10:02;7.80;;;6.50;;
6725;SDS011;3400;48.506;11.692;2023-08-06T03:12:30;7.57;;;6.80;;
6725;SDS011;3400;48.506;11.692;2023-08-06T03:14:59;9.27;;;7.27;;
6725;SDS011;3400;48.506;11.692;2023-08-06T03:17:27;8.03;;;6.70;;
6725;SDS011;3400;48.506;11.692;2023-08-06T03:19:56;10.07;;;7.33;;
6725;SDS011;3400;48.506;11.692;2023-08-06T03:22:25;8.43;;;6.90;;
6725;SDS011;3400;48.506;11.692;2023-08-06T03:24:53;8.10;;;7.00;;
6725;SDS011;3400;48.506;11.692;2023-08-06T03:27:23;7.50;;;6.80;;
6725;SDS011;3400;48.506;11.692;2023-08-06T03:29:51;7.87;;;7.03;;
6725;SDS011;3400;48.506;11.692;2023-08-06T03:32:21;7.73;;;7.03;;
6725;SDS011;3400;48.506;11.692;2023-08-06T03:34:50;7.57;;;6.87;;
6725;SDS011;3400;48.506;11.692;2023-08-06T03:37:20;9.87;;;6.60;;
6725;SDS011;3400;48.506;11.692;2023-08-06T03:39:50;7.10;;;6.47;;
6725;SDS011;3400;48.506;11.692;2023-08-06T03:42:18;6.47;;;5.87;;
6725;SDS011;3400;48.506;11.692;2023-08-06T03:44:46;7.23;;;6.30;;
6725;SDS011;3400;48.506;11.692;2023-08-06T03:47:14;8.57;;;7.20;;
6725;SDS011;3400;48.506;11.692;2023-08-06T03:49:42;8.67;;;6.70;;
6725;SDS011;3400;48.506;11.692;2023-08-06T03:52:11;6.13;;;5.53;;
6725;SDS011;3400;48.506;11.692;2023-08-06T03:54:41;7.90;;;7.10;;
6725;SDS011;3400;48.506;11.692;2023-08-06T03:57:09;7.60;;;6.90;;
6725;SDS011;3400;48.506;11.692;2023-08-06T03:59:38;6.87;;;5.90;;
6725;SDS011;3400;48.506;11.692;2023-08-06T04:02:06;6.07;;;5.53;;
6725;SDS011;3400;48.506;11.692;2023-08-06T04:04:34;9.87;;;5.77;;
6725;SDS011;3400;48.506;11.692;2023-08-06T04:07:02;6.60;;;5.57;;
6725;SDS011;3400;48.506;11.692;2023-08-06T04:09:29;6.57;;;5.27;;
6725;SDS011;3400;48.506;11.692;2023-08-06T04:11:59;6.03;;;5.43;;
6725;SDS011;3400;48.506;11.692;2023-08-06T04:14:27;6.67;;;5.40;;
6725;SDS011;3400;48.506;11.692;2023-08-06T04:16:56;6.10;;;5.50;;
6725;SDS011;3400;48.506;11.692;2023-08-06T04:19:24;5.43;;;4.90;;
6725;SDS011;3400;48.506;11.692;2023-08-06T04:21:52;7.00;;;4.90;;
6725;SDS011;3400;48.506;11.692;2023-08-06T04:24:19;6.00;;;5.50;;
6725;SDS011;3400;48.506;11.692;2023-08-06T04:26:47;5.63;;;5.13;;
6725;SDS011;3400;48.506;11.692;2023-08-06T04:29:17;5.50;;;4.97;;
6725;SDS011;3400;48.506;11.692;2023-08-06T04:31:45;5.90;;;4.73;;
6725;SDS011;3400;48.506;11.692;2023-08-06T04:34:13;5.80;;;5.20;;
6725;SDS011;3400;48.506;11.692;2023-08-06T04:36:41;5.00;;;4.53;;
6725;SDS011;3400;48.506;11.692;2023-08-06T04:39:09;5.53;;;5.03;;
6725;SDS011;3400;48.506;11.692;2023-08-06T04:41:37;5.47;;;5.07;;
6725;SDS011;3400;48.506;11.692;2023-08-06T04:44:06;5.57;;;5.07;;
6725;SDS011;3400;48.506;11.692;2023-08-06T04:46:35;5.07;;;4.53;;
6725;SDS011;3400;48.506;11.692;2023-08-06T04:49:02;5.80;;;5.20;;
6725;SDS011;3400;48.506;11.692;2023-08-06T04:51:30;6.07;;;5.50;;
6725;SDS011;3400;48.506;11.692;2023-08-06T04:53:58;6.17;;;5.60;;
6725;SDS011;3400;48.506;11.692;2023-08-06T04:56:25;6.17;;;5.50;;
6725;SDS011;3400;48.506;11.692;2023-08-06T04:58:53;5.43;;;4.97;;
6725;SDS011;3400;48.506;11.692;2023-08-06T05:01:21;5.20;;;4.73;;
6725;SDS011;3400;48.506;11.692;2023-08-06T05:03:50;5.60;;;5.10;;
6725;SDS011;3400;48.506;11.692;2023-08-06T05:06:18;6.67;;;6.07;;
6725;SDS011;3400;48.506;11.692;2023-08-06T05:08:45;5.60;;;5.10;;
6725;SDS011;3400;48.506;11.692;2023-08-06T05:11:13;5.37;;;4.97;;
6725;SDS011;3400;48.506;11.692;2023-08-06T05:13:41;4.90;;;4.50;;
6725;SDS011;3400;48.506;11.692;2023-08-06T05:16:08;5.03;;;4.50;;
6725;SDS011;3400;48.506;11.692;2023-08-06T05:18:36;5.07;;;4.53;;
6725;SDS011;3400;48.506;11.692;2023-08-06T05:21:06;4.80;;;4.13;;
6725;SDS011;3400;48.506;11.692;2023-08-06T05:23:33;5.30;;;4.80;;
6725;SDS011;3400;48.506;11.692;2023-08-06T05:26:01;4.60;;;4.10;;
6725;SDS011;3400;48.506;11.692;2023-08-06T05:28:29;6.23;;;4.30;;
6725;SDS011;3400;48.506;11.692;2023-08-06T05:30:56;8.17;;;4.10;;
6725;SDS011;3400;48.506;11.692;2023-08-06T05:33:24;4.30;;;3.47;;
6725;SDS011;3400;48.506;11.692;2023-08-06T05:35:52;3.90;;;3.47;;
6725;SDS011;3400;48.506;11.692;2023-08-06T05:38:21;6.63;;;3.80;;
6725;SDS011;3400;48.506;11.692;2023-08-06T05:40:49;4.63;;;3.83;;
6725;SDS011;3400;48.506;11.692;2023-08-06T05:43:16;4.10;;;3.50;;
6725;SDS011;3400;48.506;11.692;2023-08-06T05:45:44;3.30;;;3.00;;
6725;SDS011;3400;48.506;11.692;2023-08-06T05:48:12;5.47;;;3.43;;
6725;SDS011;3400;48.506;11.692;2023-08-06T05:50:40;3.90;;;3.30;;
6725;SDS011;3400;48.506;11.692;2023-08-06T05:53:07;3.13;;;2.90;;
6725;SDS011;3400;48.506;11.692;2023-08-06T05:55:36;5.33;;;3.43;;
6725;SDS011;3400;48.506;11.692;2023-08-06T05:58:05;3.60;;;3.13;;
6725;SDS011;3400;48.506;11.692;2023-08-06T06:00:33;3.80;;;3.33;;
6725;SDS011;3400;48.506;11.692;2023-08-06T06:03:01;4.47;;;2.90;;
6725;SDS011;3400;48.506;11.692;2023-08-06T06:05:29;3.00;;;2.80;;
6725;SDS011;3400;48.506;11.692;2023-08-06T06:07:56;3.20;;;2.93;;
6725;SDS011;3400;48.506;11.692;2023-08-06T06:10:24;2.90;;;2.70;;
6725;SDS011;3400;48.506;11.692;2023-08-06T06:12:53;4.23;;;3.20;;
6725;SDS011;3400;48.506;11.692;2023-08-06T06:15:21;3.83;;;3.30;;
6725;SDS011;3400;48.506;11.692;2023-08-06T06:17:49;3.57;;;2.87;;
6725;SDS011;3400;48.506;11.692;2023-08-06T06:20:16;3.20;;;2.93;;
6725;SDS011;3400;48.506;11.692;2023-08-06T06:22:44;3.43;;;3.13;;
6725;SDS011;3400;48.506;11.692;2023-08-06T06:25:12;3.37;;;3.07;;
6725;SDS011;3400;48.506;11.692;2023-08-06T06:27:39;4.50;;;3.20;;
6725;SDS011;3400;48.506;11.692;2023-08-06T06:30:09;3.50;;;2.80;;
6725;SDS011;3400;48.506;11.692;2023-08-06T06:32:37;4.20;;;2.63;;
6725;SDS011;3400;48.506;11.692;2023-08-06T06:35:05;3.50;;;3.20;;
6725;SDS011;3400;48.506;11.692;2023-08-06T06:37:33;2.97;;;2.77;;
6725;SDS011;3400;48.506;11.692;2023-08-06T06:40:01;3.20;;;2.87;;
6725;SDS011;3400;48.506;11.692;2023-08-06T06:42:29;3.03;;;2.60;;
6725;SDS011;3400;48.506;11.692;2023-08-06T06:45:00;3.07;;;2.87;;
6725;SDS011;3400;48.506;11.692;2023-08-06T06:47:29;3.53;;;2.43;;
6725;SDS011;3400;48.506;11.692;2023-08-06T06:49:57;2.80;;;2.57;;
6725;SDS011;3400;48.506;11.692;2023-08-06T06:52:25;3.90;;;3.00;;
6725;SDS011;3400;48.506;11.692;2023-08-06T06:54:52;2.77;;;2.57;;
6725;SDS011;3400;48.506;11.692;2023-08-06T06:57:20;3.10;;;2.73;;
6725;SDS011;3400;48.506;11.692;2023-08-06T06:59:48;4.30;;;3.10;;
6725;SDS011;3400;48.506;11.692;2023-08-06T07:02:15;3.10;;;2.17;;
6725;SDS011;3400;48.506;11.692;2023-08-06T07:04:45;5.67;;;3.23;;
6725;SDS011;3400;48.506;11.692;2023-08-06T07:07:12;2.93;;;2.63;;
6725;SDS011;3400;48.506;11.692;2023-08-06T07:09:40;2.40;;;2.20;;
6725;SDS011;3400;48.506;11.692;2023-08-06T07:12:08;3.17;;;2.77;;
6725;SDS011;3400;48.506;11.692;2023-08-06T07:14:35;3.20;;;2.60;;
6725;SDS011;3400;48.506;11.692;2023-08-06T07:17:04;3.13;;;2.43;;
6725;SDS011;3400;48.506;11.692;2023-08-06T07:19:32;2.40;;;2.20;;
6725;SDS011;3400;48.506;11.692;2023-08-06T07:22:01;3.40;;;2.57;;
6725;SDS011;3400;48.506;11.692;2023-08-06T07:24:29;4.23;;;3.03;;
6725;SDS011;3400;48.506;11.692;2023-08-06T07:26:56;5.13;;;2.83;;
6725;SDS011;3400;48.506;11.692;2023-08-06T07:29:24;2.97;;;2.50;;
6725;SDS011;3400;48.506;11.692;2023-08-06T07:31:52;2.87;;;2.67;;
6725;SDS011;3400;48.506;11.692;2023-08-06T07:34:21;6.30;;;2.63;;
6725;SDS011;3400;48.506;11.692;2023-08-06T07:36:48;2.70;;;2.37;;
6725;SDS011;3400;48.506;11.692;2023-08-06T07:39:17;2.60;;;2.10;;
6725;SDS011;3400;48.506;11.692;2023-08-06T07:41:45;8.40;;;2.50;;
6725;SDS011;3400;48.506;11.692;2023-08-06T07:44:13;2.43;;;1.90;;
6725;SDS011;3400;48.506;11.692;2023-08-06T07:46:40;2.07;;;1.87;;
6725;SDS011;3400;48.506;11.692;2023-08-06T07:49:09;4.73;;;2.00;;
6725;SDS011;3400;48.506;11.692;2023-08-06T07:51:37;6.37;;;2.17;;
6725;SDS011;3400;48.506;11.692;2023-08-06T07:54:05;2.07;;;1.97;;
6725;SDS011;3400;48.506;11.692;2023-08-06T07:56:34;2.43;;;2.23;;
6725;SDS011;3400;48.506;11.692;2023-08-06T07:59:02;2.30;;;2.10;;
6725;SDS011;3400;48.506;11.692;2023-08-06T08:01:30;2.57;;;2.10;;
6725;SDS011;3400;48.506;11.692;2023-08-06T08:03:57;2.13;;;1.93;;
6725;SDS011;3400;48.506;11.692;2023-08-06T08:06:25;2.40;;;1.80;;
6725;SDS011;3400;48.506;11.692;2023-08-06T08:08:53;2.77;;;2.20;;
6725;SDS011;3400;48.506;11.692;2023-08-06T08:11:21;3.37;;;1.60;;
6725;SDS011;3400;48.506;11.692;2023-08-06T08:13:50;5.07;;;2.03;;
6725;SDS011;3400;48.506;11.692;2023-08-06T08:16:17;3.00;;;1.37;;
6725;SDS011;3400;48.506;11.692;2023-08-06T08:18:45;1.33;;;1.23;;
6725;SDS011;3400;48.506;11.692;2023-08-06T08:21:13;2.23;;;1.40;;
6725;SDS011;3400;48.506;11.692;2023-08-06T08:23:40;1.77;;;1.50;;
6725;SDS011;3400;48.506;11.692;2023-08-06T08:26:09;3.43;;;1.50;;
6725;SDS011;3400;48.506;11.692;2023-08-06T08:28:37;2.83;;;0.90;;
6725;SDS011;3400;48.506;11.692;2023-08-06T08:31:08;2.43;;;1.10;;
6725;SDS011;3400;48.506;11.692;2023-08-06T08:33:36;1.83;;;0.80;;
6725;SDS011;3400;48.506;11.692;2023-08-06T08:36:04;1.20;;;1.10;;
6725;SDS011;3400;48.506;11.692;2023-08-06T08:38:32;0.90;;;0.90;;
6725;SDS011;3400;48.506;11.692;2023-08-06T08:40:59;0.90;;;0.90;;
6725;SDS011;3400;48.506;11.692;2023-08-06T08:43:27;2.30;;;1.10;;
6725;SDS011;3400;48.506;11.692;2023-08-06T08:45:56;2.33;;;1.23;;
6725;SDS011;3400;48.506;11.692;2023-08-06T08:48:26;1.23;;;1.13;;
6725;SDS011;3400;48.506;11.692;2023-08-06T08:50:54;1.77;;;1.00;;
6725;SDS011;3400;48.506;11.692;2023-08-06T08:53:23;2.40;;;1.13;;
6725;SDS011;3400;48.506;11.692;2023-08-06T08:55:51;3.17;;;1.00;;
6725;SDS011;3400;48.506;11.692;2023-08-06T08:58:19;1.07;;;0.90;;
6725;SDS011;3400;48.506;11.692;2023-08-06T09:00:47;1.40;;;1.10;;
6725;SDS011;3400;48.506;11.692;2023-08-06T09:03:15;1.80;;;1.20;;
6725;SDS011;3400;48.506;11.692;2023-08-06T09:05:45;2.83;;;1.10;;
6725;SDS011;3400;48.506;11.692;2023-08-06T09:08:17;1.20;;;1.10;;
6725;SDS011;3400;48.506;11.692;2023-08-06T09:10:46;1.20;;;1.10;;
6725;SDS011;3400;48.506;11.692;2023-08-06T09:13:16;4.03;;;1.50;;
6725;SDS011;3400;48.506;11.692;2023-08-06T09:15:45;1.10;;;1.10;;
6725;SDS011;3400;48.506;11.692;2023-08-06T09:18:15;1.10;;;0.90;;
6725;SDS011;3400;48.506;11.692;2023-08-06T09:20:42;0.93;;;0.93;;
6725;SDS011;3400;48.506;11.692;2023-08-06T09:23:11;1.03;;;0.93;;
6725;SDS011;3400;48.506;11.692;2023-08-06T09:25:39;1.40;;;1.20;;
6725;SDS011;3400;48.506;11.692;2023-08-06T09:28:07;1.63;;;1.00;;
6725;SDS011;3400;48.506;11.692;2023-08-06T09:30:35;2.20;;;0.77;;
6725;SDS011;3400;48.506;11.692;2023-08-06T09:33:03;2.80;;;1.20;;
6725;SDS011;3400;48.506;11.692;2023-08-06T09:35:36;2.10;;;1.00;;
6725;SDS011;3400;48.506;11.692;2023-08-06T09:38:06;1.47;;;0.90;;
6725;SDS011;3400;48.506;11.692;2023-08-06T09:40:36;12.20;;;1.40;;
6725;SDS011;3400;48.506;11.692;2023-08-06T09:43:05;4.87;;;1.00;;
6725;SDS011;3400;48.506;11.692;2023-08-06T09:45:34;1.17;;;0.60;;
6725;SDS011;3400;48.506;11.692;2023-08-06T09:48:02;1.47;;;0.70;;
6725;SDS011;3400;48.506;11.692;2023-08-06T09:50:30;1.67;;;0.80;;
6725;SDS011;3400;48.506;11.692;2023-08-06T09:52:58;1.10;;;0.90;;
6725;SDS011;3400;48.506;11.692;2023-08-06T09:55:26;0.80;;;0.80;;
6725;SDS011;3400;48.506;11.692;2023-08-06T09:57:55;1.90;;;1.13;;
6725;SDS011;3400;48.506;11.692;2023-08-06T10:00:23;1.33;;;1.00;;
6725;SDS011;3400;48.506;11.692;2023-08-06T10:02:52;0.73;;;0.63;;
6725;SDS011;3400;48.506;11.692;2023-08-06T10:05:21;2.30;;;0.70;;
6725;SDS011;3400;48.506;11.692;2023-08-06T10:07:49;0.97;;;0.43;;
6725;SDS011;3400;48.506;11.692;2023-08-06T10:10:17;2.37;;;0.60;;
6725;SDS011;3400;48.506;11.692;2023-08-06T10:12:46;0.70;;;0.70;;
6725;SDS011;3400;48.506;11.692;2023-08-06T10:15:16;2.40;;;0.90;;
6725;SDS011;3400;48.506;11.692;2023-08-06T10:17:45;1.37;;;0.90;;
6725;SDS011;3400;48.506;11.692;2023-08-06T10:20:14;0.73;;;0.73;;
6725;SDS011;3400;48.506;11.692;2023-08-06T10:22:42;1.53;;;0.87;;
6725;SDS011;3400;48.506;11.692;2023-08-06T10:25:10;0.90;;;0.70;;
6725;SDS011;3400;48.506;11.692;2023-08-06T10:27:52;1.63;;;0.77;;
6725;SDS011;3400;48.506;11.692;2023-08-06T10:30:22;1.13;;;0.90;;
6725;SDS011;3400;48.506;11.692;2023-08-06T10:32:50;1.43;;;0.80;;
6725;SDS011;3400;48.506;11.692;2023-08-06T10:35:27;0.90;;;0.70;;
6725;SDS011;3400;48.506;11.692;2023-08-06T10:37:57;3.80;;;0.80;;
6725;SDS011;3400;48.506;11.692;2023-08-06T10:40:25;1.07;;;0.73;;
6725;SDS011;3400;48.506;11.692;2023-08-06T10:42:55;0.53;;;0.53;;
6725;SDS011;3400;48.506;11.692;2023-08-06T10:45:24;0.70;;;0.70;;
6725;SDS011;3400;48.506;11.692;2023-08-06T10:47:54;2.57;;;0.83;;
6725;SDS011;3400;48.506;11.692;2023-08-06T10:50:23;1.20;;;0.77;;
6725;SDS011;3400;48.506;11.692;2023-08-06T10:52:50;0.70;;;0.60;;
6725;SDS011;3400;48.506;11.692;2023-08-06T10:55:22;1.10;;;0.60;;
6725;SDS011;3400;48.506;11.692;2023-08-06T10:57:50;4.13;;;0.80;;
6725;SDS011;3400;48.506;11.692;2023-08-06T11:00:18;0.57;;;0.57;;
6725;SDS011;3400;48.506;11.692;2023-08-06T11:02:48;2.37;;;0.47;;
6725;SDS011;3400;48.506;11.692;2023-08-06T11:05:16;1.00;;;0.50;;
6725;SDS011;3400;48.506;11.692;2023-08-06T11:07:43;0.50;;;0.50;;
6725;SDS011;3400;48.506;11.692;2023-08-06T11:10:13;1.37;;;0.57;;
6725;SDS011;3400;48.506;11.692;2023-08-06T11:12:41;0.80;;;0.77;;
6725;SDS011;3400;48.506;11.692;2023-08-06T11:15:09;0.63;;;0.60;;
6725;SDS011;3400;48.506;11.692;2023-08-06T11:17:37;0.40;;;0.40;;
6725;SDS011;3400;48.506;11.692;2023-08-06T11:20:08;0.40;;;0.40;;
6725;SDS011;3400;48.506;11.692;2023-08-06T11:22:37;0.73;;;0.73;;
6725;SDS011;3400;48.506;11.692;2023-08-06T11:25:05;0.83;;;0.70;;
6725;SDS011;3400;48.506;11.692;2023-08-06T11:27:33;0.73;;;0.53;;
6725;SDS011;3400;48.506;11.692;2023-08-06T11:30:01;0.33;;;0.33;;
6725;SDS011;3400;48.506;11.692;2023-08-06T11:32:29;1.13;;;0.40;;
6725;SDS011;3400;48.506;11.692;2023-08-06T11:34:59;1.90;;;0.70;;
6725;SDS011;3400;48.506;11.692;2023-08-06T11:37:28;0.87;;;0.43;;
6725;SDS011;3400;48.506;11.692;2023-08-06T11:39:55;0.30;;;0.30;;
6725;SDS011;3400;48.506;11.692;2023-08-06T11:42:26;1.47;;;0.50;;
6725;SDS011;3400;48.506;11.692;2023-08-06T11:44:56;0.20;;;0.20;;
6725;SDS011;3400;48.506;11.692;2023-08-06T11:47:24;0.40;;;0.30;;
6725;SDS011;3400;48.506;11.692;2023-08-06T11:49:51;0.80;;;0.40;;
6725;SDS011;3400;48.506;11.692;2023-08-06T11:52:20;0.60;;;0.30;;
6725;SDS011;3400;48.506;11.692;2023-08-06T11:55:00;2.53;;;0.40;;
6725;SDS011;3400;48.506;11.692;2023-08-06T11:57:29;0.40;;;0.40;;
6725;SDS011;3400;48.506;11.692;2023-08-06T12:00:01;0.70;;;0.70;;
6725;SDS011;3400;48.506;11.692;2023-08-06T12:02:38;3.00;;;0.50;;
6725;SDS011;3400;48.506;11.692;2023-08-06T12:05:10;0.50;;;0.50;;
6725;SDS011;3400;48.506;11.692;2023-08-06T12:07:38;0.30;;;0.30;;
6725;SDS011;3400;48.506;11.692;2023-08-06T12:10:07;0.30;;;0.30;;
6725;SDS011;3400;48.506;11.692;2023-08-06T12:12:35;0.40;;;0.40;;
6725;SDS011;3400;48.506;11.692;2023-08-06T12:15:04;0.30;;;0.30;;
6725;SDS011;3400;48.506;11.692;2023-08-06T12:17:32;0.20;;;0.20;;
6725;SDS011;3400;48.506;11.692;2023-08-06T12:20:00;0.30;;;0.30;;
6725;SDS011;3400;48.506;11.692;2023-08-06T12:22:30;1.33;;;0.20;;
6725;SDS011;3400;48.506;11.692;2023-08-06T12:25:00;0.30;;;0.30;;
6725;SDS011;3400;48.506;11.692;2023-08-06T12:27:30;0.17;;;0.17;;
6725;SDS011;3400;48.506;11.692;2023-08-06T12:29:57;1.53;;;0.23;;
6725;SDS011;3400;48.506;11.692;2023-08-06T12:32:25;0.87;;;0.33;;
6725;SDS011;3400;48.506;11.692;2023-08-06T12:34:53;0.20;;;0.20;;
6725;SDS011;3400;48.506;11.692;2023-08-06T12:37:21;4.23;;;0.40;;
6725;SDS011;3400;48.506;11.692;2023-08-06T12:39:49;0.20;;;0.20;;
6725;SDS011;3400;48.506;11.692;2023-08-06T12:42:16;2.43;;;0.37;;
6725;SDS011;3400;48.506;11.692;2023-08-06T12:44:45;0.40;;;0.40;;
6725;SDS011;3400;48.506;11.692;2023-08-06T12:47:13;0.97;;;0.20;;
6725;SDS011;3400;48.506;11.692;2023-08-06T12:49:41;0.63;;;0.20;;
6725;SDS011;3400;48.506;11.692;2023-08-06T12:52:08;1.10;;;0.37;;
6725;SDS011;3400;48.506;11.692;2023-08-06T12:54:38;1.53;;;0.30;;
6725;SDS011;3400;48.506;11.692;2023-08-06T12:57:06;0.20;;;0.20;;
6725;SDS011;3400;48.506;11.692;2023-08-06T12:59:33;0.20;;;0.20;;
6725;SDS011;3400;48.506;11.692;2023-08-06T13:02:03;0.10;;;0.10;;
6725;SDS011;3400;48.506;11.692;2023-08-06T13:04:31;0.57;;;0.20;;
6725;SDS011;3400;48.506;11.692;2023-08-06T13:06:59;1.23;;;0.20;;
6725;SDS011;3400;48.506;11.692;2023-08-06T13:09:27;0.17;;;0.17;;
6725;SDS011;3400;48.506;11.692;2023-08-06T13:11:56;0.57;;;0.27;;
6725;SDS011;3400;48.506;11.692;2023-08-06T13:14:25;7.63;;;0.70;;
6725;SDS011;3400;48.506;11.692;2023-08-06T13:16:54;2.80;;;0.20;;
6725;SDS011;3400;48.506;11.692;2023-08-06T13:19:23;0.10;;;0.10;;
6725;SDS011;3400;48.506;11.692;2023-08-06T13:22:01;0.20;;;0.20;;
6725;SDS011;3400;48.506;11.692;2023-08-06T13:24:29;0.20;;;0.20;;
6725;SDS011;3400;48.506;11.692;2023-08-06T13:26:57;0.20;;;0.20;;
6725;SDS011;3400;48.506;11.692;2023-08-06T13:29:25;0.20;;;0.20;;
6725;SDS011;3400;48.506;11.692;2023-08-06T13:31:53;0.87;;;0.40;;
6725;SDS011;3400;48.506;11.692;2023-08-06T13:34:20;0.20;;;0.20;;
6725;SDS011;3400;48.506;11.692;2023-08-06T13:36:50;1.37;;;0.20;;
6725;SDS011;3400;48.506;11.692;2023-08-06T13:39:17;0.40;;;0.30;;
6725;SDS011;3400;48.506;11.692;2023-08-06T13:41:45;0.30;;;0.30;;
6725;SDS011;3400;48.506;11.692;2023-08-06T13:44:13;0.73;;;0.20;;
6725;SDS011;3400;48.506;11.692;2023-08-06T13:46:41;1.50;;;0.30;;
6725;SDS011;3400;48.506;11.692;2023-08-06T13:49:09;0.17;;;0.10;;
6725;SDS011;3400;48.506;11.692;2023-08-06T13:51:36;0.87;;;0.30;;
6725;SDS011;3400;48.506;11.692;2023-08-06T13:54:05;0.73;;;0.40;;
6725;SDS011;3400;48.506;11.692;2023-08-06T13:56:34;0.30;;;0.30;;
6725;SDS011;3400;48.506;11.692;2023-08-06T13:59:03;0.30;;;0.30;;
6725;SDS011;3400;48.506;11.692;2023-08-06T14:01:32;0.37;;;0.27;;
6725;SDS011;3400;48.506;11.692;2023-08-06T14:03:59;0.37;;;0.23;;
6725;SDS011;3400;48.506;11.692;2023-08-06T14:06:27;0.23;;;0.23;;
6725;SDS011;3400;48.506;11.692;2023-08-06T14:08:56;0.20;;;0.20;;
6725;SDS011;3400;48.506;11.692;2023-08-06T14:11:25;1.13;;;0.40;;
6725;SDS011;3400;48.506;11.692;2023-08-06T14:13:52;0.20;;;0.20;;
6725;SDS011;3400;48.506;11.692;2023-08-06T14:16:20;0.30;;;0.30;;
6725;SDS011;3400;48.506;11.692;2023-08-06T14:18:48;0.50;;;0.50;;
6725;SDS011;3400;48.506;11.692;2023-08-06T14:21:15;0.30;;;0.30;;
6725;SDS011;3400;48.506;11.692;2023-08-06T14:23:43;1.17;;;0.33;;
6725;SDS011;3400;48.506;11.692;2023-08-06T14:26:11;0.63;;;0.20;;
6725;SDS011;3400;48.506;11.692;2023-08-06T14:28:42;0.20;;;0.20;;
6725;SDS011;3400;48.506;11.692;2023-08-06T14:31:10;0.30;;;0.30;;
6725;SDS011;3400;48.506;11.692;2023-08-06T14:33:38;0.57;;;0.57;;
6725;SDS011;3400;48.506;11.692;2023-08-06T14:36:06;0.27;;;0.27;;
6725;SDS011;3400;48.506;11.692;2023-08-06T14:38:33;0.93;;;0.40;;
6725;SDS011;3400;48.506;11.692;2023-08-06T14:41:01;1.63;;;0.30;;
6725;SDS011;3400;48.506;11.692;2023-08-06T14:43:29;0.30;;;0.30;;
6725;SDS011;3400;48.506;11.692;2023-08-06T14:45:58;1.70;;;0.50;;
6725;SDS011;3400;48.506;11.692;2023-08-06T14:48:26;0.20;;;0.20;;
6725;SDS011;3400;48.506;11.692;2023-08-06T14:50:53;0.67;;;0.30;;
6725;SDS011;3400;48.506;11.692;2023-08-06T14:53:21;0.40;;;0.40;;
6725;SDS011;3400;48.506;11.692;2023-08-06T14:55:49;0.30;;;0.30;;
6725;SDS011;3400;48.506;11.692;2023-08-06T14:58:16;0.87;;;0.30;;
6725;SDS011;3400;48.506;11.692;2023-08-06T15:00:44;3.23;;;0.43;;
6725;SDS011;3400;48.506;11.692;2023-08-06T15:03:13;0.63;;;0.37;;
6725;SDS011;3400;48.506;11.692;2023-08-06T15:05:42;0.40;;;0.40;;
6725;SDS011;3400;48.506;11.692;2023-08-06T15:08:11;0.60;;;0.40;;